Time;durP1;ratioP1;P1;durP2;ratioP2;P2;SDS_P1;SDS_P2;PMS_P1;PMS_P2;Temp;Humidity;BMP_temperature;BMP_pressure;BME280_temperature;BME280_humidity;BME280_pressure;Samples;Min_cycle;Max_cycle;Signal;HPM_P1;HPM_P2
2021/07/22 00:02:05;;;;;;;35.20;21.07;;;19.00;99.90;;;;;;5076296;28;20199;-78
2021/07/22 00:04:32;;;;;;;34.40;21.10;;;19.10;99.90;;;;;;5075062;28;20206;-78
2021/07/22 00:06:59;;;;;;;32.83;20.07;;;19.30;99.90;;;;;;5088630;28;20250;-78
2021/07/22 00:09:28;;;;;;;33.63;20.03;;;19.30;99.90;;;;;;5095350;28;20191;-78
2021/07/22 00:11:54;;;;;;;31.30;19.37;;;19.40;99.90;;;;;;5094240;28;20230;-78
2021/07/22 00:14:21;;;;;;;32.00;20.27;;;19.40;99.90;;;;;;5075344;28;20238;-78
2021/07/22 00:16:48;;;;;;;31.97;20.23;;;19.10;99.90;;;;;;5074632;28;20282;-79
2021/07/22 00:19:15;;;;;;;32.40;19.70;;;18.90;99.90;;;;;;5084840;28;20201;-79
2021/07/22 00:21:42;;;;;;;30.47;19.90;;;18.70;99.90;;;;;;5083987;28;20223;-78
2021/07/22 00:24:09;;;;;;;32.53;20.57;;;18.70;99.90;;;;;;5074829;28;20199;-78
2021/07/22 00:26:39;;;;;;;36.70;20.73;;;18.80;99.90;;;;;;5086183;28;20297;-78
2021/07/22 00:29:06;;;;;;;30.83;20.10;;;18.90;99.90;;;;;;5092833;28;20312;-78
2021/07/22 00:31:33;;;;;;;35.57;20.60;;;18.90;99.90;;;;;;5093275;28;20653;-78
2021/07/22 00:34:01;;;;;;;36.23;20.90;;;18.80;99.90;;;;;;5094110;28;20707;-79
2021/07/22 00:36:28;;;;;;;31.63;19.77;;;18.80;99.90;;;;;;5086378;28;20229;-78
2021/07/22 00:38:55;;;;;;;31.50;18.30;;;18.70;99.90;;;;;;5093328;28;20282;-78
2021/07/22 00:41:21;;;;;;;30.90;19.83;;;18.50;99.90;;;;;;5094266;28;20194;-78
2021/07/22 00:43:50;;;;;;;36.07;20.63;;;18.40;99.90;;;;;;5094586;28;20289;-78
2021/07/22 00:46:17;;;;;;;36.47;23.23;;;18.40;99.90;;;;;;5084948;28;20198;-78
2021/07/22 00:48:44;;;;;;;42.97;23.27;;;18.40;99.90;;;;;;5080054;28;20517;-78
2021/07/22 00:51:11;;;;;;;45.80;25.70;;;18.30;99.90;;;;;;5081885;28;20687;-78
2021/07/22 00:53:38;;;;;;;40.77;23.13;;;18.30;99.90;;;;;;5094300;28;20205;-78
2021/07/22 00:56:06;;;;;;;38.70;23.20;;;18.40;99.90;;;;;;5093666;28;20361;-78
2021/07/22 00:58:33;;;;;;;44.67;23.30;;;18.30;99.90;;;;;;5093961;28;20273;-78
2021/07/22 01:01:01;;;;;;;44.83;25.80;;;18.20;99.90;;;;;;5087708;28;20282;-78
2021/07/22 01:03:28;;;;;;;50.80;27.30;;;18.20;99.90;;;;;;5073865;28;20206;-78
2021/07/22 01:05:55;;;;;;;53.43;27.83;;;18.20;99.90;;;;;;5074180;28;20191;-78
2021/07/22 01:08:21;;;;;;;42.10;25.80;;;18.20;99.90;;;;;;5073647;28;20309;-78
2021/07/22 01:10:48;;;;;;;46.60;24.90;;;18.20;99.90;;;;;;5073528;28;20290;-78
2021/07/22 01:13:15;;;;;;;49.17;27.50;;;18.10;99.90;;;;;;5073382;28;20195;-78
2021/07/22 01:15:42;;;;;;;51.90;28.60;;;17.90;99.90;;;;;;5077116;28;20227;-78
2021/07/22 01:18:11;;;;;;;51.30;28.57;;;17.90;99.90;;;;;;5074742;28;20278;-78
2021/07/22 01:20:39;;;;;;;50.53;28.50;;;17.90;99.90;;;;;;5075778;28;20240;-78
2021/07/22 01:23:06;;;;;;;55.93;29.27;;;17.80;99.90;;;;;;5092547;28;20286;-78
2021/07/22 01:25:33;;;;;;;49.53;28.03;;;17.80;99.90;;;;;;5092980;28;20302;-78
2021/07/22 01:28:00;;;;;;;54.13;28.87;;;17.80;99.90;;;;;;5073411;28;20334;-79
2021/07/22 01:30:26;;;;;;;55.23;29.67;;;17.90;99.90;;;;;;5073146;28;20759;-78
2021/07/22 01:32:53;;;;;;;55.97;27.27;;;17.80;99.90;;;;;;5073401;28;20230;-79
2021/07/22 01:35:21;;;;;;;58.60;31.23;;;17.80;99.90;;;;;;5073040;28;20241;-78
2021/07/22 01:37:50;;;;;;;53.30;29.10;;;17.90;99.90;;;;;;5086980;28;20191;-78
2021/07/22 01:40:18;;;;;;;57.30;28.23;;;17.80;99.90;;;;;;5073209;28;20559;-79
2021/07/22 01:42:46;;;;;;;55.97;30.77;;;17.70;99.90;;;;;;5073047;28;20282;-79
2021/07/22 01:45:16;;;;;;;59.50;29.83;;;17.70;99.90;;;;;;5073269;28;20278;-78
2021/07/22 01:47:42;;;;;;;56.40;29.40;;;17.50;99.90;;;;;;5072832;28;20318;-78
2021/07/22 01:50:11;;;;;;;62.37;31.23;;;17.50;99.90;;;;;;5073326;28;20294;-78
2021/07/22 01:52:38;;;;;;;57.60;30.43;;;17.50;99.90;;;;;;5073414;28;20307;-79
2021/07/22 01:55:07;;;;;;;57.93;30.33;;;17.40;99.90;;;;;;5073044;28;20539;-79
2021/07/22 01:57:34;;;;;;;61.03;30.53;;;17.30;99.90;;;;;;5072772;28;20200;-78
2021/07/22 02:00:04;;;;;;;59.30;30.60;;;17.20;99.90;;;;;;5072790;28;20234;-79
2021/07/22 02:02:32;;;;;;;63.03;32.40;;;17.10;99.90;;;;;;5091438;28;20234;-78
2021/07/22 02:04:59;;;;;;;64.07;31.33;;;17.10;99.90;;;;;;5092763;28;20198;-78
2021/07/22 02:07:26;;;;;;;60.13;32.03;;;17.10;99.90;;;;;;5092454;28;20219;-78
2021/07/22 02:09:53;;;;;;;62.30;31.93;;;17.10;99.90;;;;;;5092901;28;20656;-79
2021/07/22 02:12:21;;;;;;;61.20;32.33;;;17.10;99.90;;;;;;5093003;28;20226;-79
2021/07/22 02:14:50;;;;;;;65.20;33.47;;;17.00;99.90;;;;;;5093017;28;20285;-78
2021/07/22 02:17:18;;;;;;;65.20;33.10;;;17.10;99.90;;;;;;5075893;28;20287;-78
2021/07/22 02:19:45;;;;;;;59.47;31.90;;;17.00;99.90;;;;;;5080875;28;20660;-78
2021/07/22 02:22:14;;;;;;;61.37;32.33;;;17.00;99.90;;;;;;5080934;28;20286;-78
2021/07/22 02:24:41;;;;;;;60.53;32.30;;;17.00;99.90;;;;;;5076899;28;20630;-78
2021/07/22 02:27:08;;;;;;;66.10;33.17;;;17.00;99.90;;;;;;5091872;28;20218;-78
2021/07/22 02:29:37;;;;;;;65.37;31.07;;;17.10;99.90;;;;;;5096915;28;20205;-78
2021/07/22 02:32:04;;;;;;;61.70;31.93;;;17.20;99.90;;;;;;5081610;28;20282;-78
2021/07/22 02:34:31;;;;;;;66.00;33.10;;;17.30;99.90;;;;;;5085133;28;20219;-79
2021/07/22 02:36:58;;;;;;;64.63;33.93;;;17.30;99.90;;;;;;5094033;28;20224;-78
2021/07/22 02:39:25;;;;;;;74.80;36.03;;;17.50;99.90;;;;;;5096724;28;20644;-78
2021/07/22 02:41:52;;;;;;;66.57;34.23;;;17.60;99.90;;;;;;5096803;28;20278;-78
2021/07/22 02:44:19;;;;;;;62.30;33.07;;;17.60;99.90;;;;;;5096900;28;20290;-79
2021/07/22 02:46:47;;;;;;;70.70;33.60;;;17.40;99.90;;;;;;5083469;28;20192;-78
2021/07/22 02:49:14;;;;;;;76.73;35.17;;;17.30;99.90;;;;;;5076534;28;20253;-78
2021/07/22 02:51:41;;;;;;;80.77;37.20;;;17.20;99.90;;;;;;5087704;28;20678;-78
2021/07/22 02:54:08;;;;;;;79.97;38.93;;;17.30;99.90;;;;;;5096856;28;20252;-78
2021/07/22 02:56:35;;;;;;;81.60;38.63;;;17.40;99.90;;;;;;5096201;28;20282;-79
2021/07/22 02:59:02;;;;;;;83.67;39.17;;;17.50;99.90;;;;;;5096470;28;20285;-78
2021/07/22 03:01:28;;;;;;;85.37;38.37;;;17.60;99.90;;;;;;5093174;28;20277;-78
2021/07/22 03:03:57;;;;;;;86.93;40.93;;;17.60;99.90;;;;;;5095018;28;20595;-78
2021/07/22 03:06:24;;;;;;;82.57;38.27;;;17.60;99.90;;;;;;5086315;28;20196;-79
2021/07/22 03:08:51;;;;;;;80.23;37.27;;;17.50;99.90;;;;;;5076034;28;20310;-78
2021/07/22 03:11:18;;;;;;;69.23;33.53;;;17.30;99.90;;;;;;5075757;28;20224;-78
2021/07/22 03:13:45;;;;;;;75.13;34.93;;;17.20;99.90;;;;;;5075974;28;20245;-78
2021/07/22 03:16:11;;;;;;;62.53;31.63;;;17.10;99.90;;;;;;5083049;28;20302;-79
2021/07/22 03:18:38;;;;;;;69.20;32.77;;;17.10;99.90;;;;;;5078323;28;20242;-78
2021/07/22 03:21:06;;;;;;;68.63;33.33;;;17.10;99.90;;;;;;5083601;28;20203;-79
2021/07/22 03:23:33;;;;;;;70.30;32.87;;;17.10;99.90;;;;;;5074110;28;20226;-79
2021/07/22 03:26:00;;;;;;;73.73;32.90;;;17.00;99.90;;;;;;5075225;28;20285;-78
2021/07/22 03:28:27;;;;;;;68.77;32.83;;;17.10;99.90;;;;;;5075100;28;20771;-78
2021/07/22 03:30:54;;;;;;;68.30;33.33;;;17.10;99.90;;;;;;5074234;28;20282;-78
2021/07/22 03:33:21;;;;;;;63.83;31.73;;;17.10;99.90;;;;;;5076731;28;20199;-78
2021/07/22 03:35:48;;;;;;;71.13;34.27;;;17.00;99.90;;;;;;5095804;28;20199;-78
2021/07/22 03:38:16;;;;;;;75.27;35.90;;;17.10;99.90;;;;;;5094551;28;20197;-79
2021/07/22 03:40:43;;;;;;;70.93;34.40;;;17.10;99.90;;;;;;5088150;28;20192;-78
2021/07/22 03:43:10;;;;;;;75.90;35.13;;;17.00;99.90;;;;;;5090589;28;20570;-79
2021/07/22 03:45:37;;;;;;;67.77;32.07;;;17.00;99.90;;;;;;5087561;28;20281;-79
2021/07/22 03:48:04;;;;;;;72.40;32.93;;;17.10;99.90;;;;;;5094194;28;20222;-79
2021/07/22 03:50:31;;;;;;;69.97;32.97;;;17.00;99.90;;;;;;5091806;28;20719;-78
2021/07/22 03:52:58;;;;;;;73.63;33.63;;;16.90;99.90;;;;;;5075011;28;20235;-78
2021/07/22 03:55:27;;;;;;;71.10;32.67;;;16.90;99.90;;;;;;5092738;28;20234;-78
2021/07/22 03:57:56;;;;;;;75.20;33.63;;;17.00;99.90;;;;;;5095171;28;20508;-78
2021/07/22 04:00:23;;;;;;;75.00;35.23;;;16.90;99.90;;;;;;5094434;28;20205;-78
2021/07/22 04:02:59;;;;;;;76.67;35.47;;;16.90;99.90;;;;;;5095602;28;20203;-79
2021/07/22 04:05:27;;;;;;;76.83;33.37;;;16.90;99.90;;;;;;5095108;28;20195;-78
2021/07/22 04:07:56;;;;;;;71.40;32.90;;;16.90;99.90;;;;;;5091687;28;20215;-79
2021/07/22 04:10:23;;;;;;;76.53;35.57;;;17.00;99.90;;;;;;5088239;28;20198;-78
2021/07/22 04:12:58;;;;;;;72.47;33.93;;;17.00;99.90;;;;;;5094706;28;20206;-78
2021/07/22 04:15:26;;;;;;;76.07;36.83;;;16.90;99.90;;;;;;5091787;28;20732;-79
2021/07/22 04:17:54;;;;;;;72.93;34.77;;;17.00;99.90;;;;;;5074472;28;20671;-78
2021/07/22 04:20:23;;;;;;;72.60;35.33;;;17.00;99.90;;;;;;5075722;28;20238;-78
2021/07/22 04:22:51;;;;;;;70.63;33.40;;;17.10;99.90;;;;;;5074739;28;20778;-78
2021/07/22 04:25:22;;;;;;;73.50;35.00;;;17.20;99.90;;;;;;5074518;28;20286;-78
2021/07/22 04:27:49;;;;;;;70.67;34.40;;;17.20;99.90;;;;;;5094491;28;20223;-78
2021/07/22 04:30:18;;;;;;;68.90;32.67;;;17.20;99.90;;;;;;5094468;28;20222;-79
2021/07/22 04:32:46;;;;;;;67.37;33.00;;;17.30;99.90;;;;;;5095092;28;20286;-79
2021/07/22 04:35:16;;;;;;;66.50;31.50;;;17.40;99.90;;;;;;5093937;28;20252;-78
2021/07/22 04:37:43;;;;;;;65.33;31.47;;;17.40;99.90;;;;;;5073843;28;20196;-79
2021/07/22 04:40:10;;;;;;;61.10;32.57;;;17.60;99.90;;;;;;5086220;28;20199;-78
2021/07/22 04:42:37;;;;;;;66.00;32.47;;;17.70;99.90;;;;;;5094142;28;20289;-78
2021/07/22 04:45:05;;;;;;;69.13;33.67;;;17.80;99.90;;;;;;5087175;28;20207;-78
2021/07/22 04:47:33;;;;;;;68.27;33.23;;;17.90;99.90;;;;;;5074252;28;20291;-78
2021/07/22 04:50:00;;;;;;;67.97;33.87;;;18.10;99.90;;;;;;5073878;28;20218;-79
2021/07/22 04:52:27;;;;;;;68.10;33.30;;;18.30;99.90;;;;;;5081948;28;20687;-79
2021/07/22 04:54:54;;;;;;;59.27;31.37;;;18.40;99.90;;;;;;5074141;28;20295;-78
2021/07/22 04:57:21;;;;;;;62.87;31.33;;;18.60;99.90;;;;;;5073755;28;20286;-79
2021/07/22 04:59:48;;;;;;;63.23;32.97;;;18.80;99.90;;;;;;5074890;28;20202;-79
2021/07/22 05:02:15;;;;;;;67.53;33.70;;;19.00;99.90;;;;;;5088281;28;20643;-79
2021/07/22 05:04:44;;;;;;;67.37;34.60;;;19.20;99.90;;;;;;5073308;28;20290;-79
2021/07/22 05:07:11;;;;;;;65.27;33.50;;;19.30;99.90;;;;;;5089622;28;20302;-78
2021/07/22 05:09:40;;;;;;;63.73;34.27;;;19.40;99.90;;;;;;5088662;28;20226;-78
2021/07/22 05:12:09;;;;;;;65.07;34.57;;;19.60;99.90;;;;;;5090283;28;20195;-79
2021/07/22 05:14:36;;;;;;;67.53;36.30;;;19.80;99.90;;;;;;5092107;28;20198;-79
2021/07/22 05:17:03;;;;;;;75.73;39.83;;;20.00;99.90;;;;;;5090835;28;20690;-78
2021/07/22 05:19:30;;;;;;;77.20;40.70;;;20.10;99.90;;;;;;5079634;28;20281;-79
2021/07/22 05:21:58;;;;;;;78.43;40.83;;;20.30;99.90;;;;;;5091024;28;20285;-78
2021/07/22 05:24:25;;;;;;;69.87;38.23;;;20.40;99.90;;;;;;5086223;28;20333;-79
2021/07/22 05:26:54;;;;;;;75.73;39.73;;;20.60;99.90;;;;;;5083097;28;20278;-78
2021/07/22 05:29:21;;;;;;;74.20;39.80;;;20.80;99.90;;;;;;5081473;28;20222;-79
2021/07/22 05:31:50;;;;;;;77.97;40.80;;;20.90;99.90;;;;;;5082058;28;20195;-78
2021/07/22 05:34:17;;;;;;;77.80;42.13;;;21.00;99.90;;;;;;5077245;28;20201;-79
2021/07/22 05:36:44;;;;;;;73.35;40.92;;;20.90;99.90;;;;;;5084644;28;20197;-78
2021/07/22 05:39:12;;;;;;;77.73;42.50;;;21.10;99.90;;;;;;5083311;28;20575;-78
2021/07/22 05:41:39;;;;;;;73.32;40.97;;;21.20;99.90;;;;;;5074124;28;20223;-79
2021/07/22 05:44:07;;;;;;;71.85;39.72;;;21.50;99.90;;;;;;5086576;28;20290;-78
2021/07/22 05:46:34;;;;;;;67.47;37.88;;;22.50;99.90;;;;;;5083419;28;20563;-78
2021/07/22 05:49:01;;;;;;;66.50;36.47;;;23.80;99.90;;;;;;5077270;28;20644;-79
2021/07/22 05:51:30;;;;;;;60.63;36.08;;;25.00;99.90;;;;;;5074079;28;20196;-79
2021/07/22 05:53:58;;;;;;;61.40;35.90;;;26.20;99.90;;;;;;5072069;28;20195;-78
2021/07/22 05:56:27;;;;;;;54.65;34.55;;;27.00;99.90;;;;;;5089565;28;20198;-79
2021/07/22 05:58:55;;;;;;;57.42;35.88;;;27.80;99.90;;;;;;5075319;28;20195;-79
2021/07/22 06:01:22;;;;;;;61.60;35.33;;;28.50;99.90;;;;;;5091155;28;20282;-76
2021/07/22 06:03:52;;;;;;;51.53;32.33;;;28.80;99.90;;;;;;5085945;28;20729;-78
2021/07/22 06:06:19;;;;;;;49.63;31.90;;;28.90;99.90;;;;;;5083601;28;20278;-79
2021/07/22 06:08:46;;;;;;;47.40;30.23;;;30.00;99.90;;;;;;5082921;28;20306;-78
2021/07/22 06:11:13;;;;;;;49.35;31.50;;;30.90;99.90;;;;;;5089798;28;20191;-78
2021/07/22 06:13:42;;;;;;;48.80;30.90;;;31.50;99.90;;;;;;5088409;28;20608;-76
2021/07/22 06:16:12;;;;;;;50.30;32.22;;;32.20;99.90;;;;;;5083470;28;20223;-76
2021/07/22 06:18:39;;;;;;;50.35;31.33;;;32.10;99.90;;;;;;5073498;28;20184;-75
2021/07/22 06:21:06;;;;;;;49.95;32.30;;;30.70;99.90;;;;;;5072173;28;20231;-76
2021/07/22 06:23:34;;;;;;;48.08;31.85;;;29.50;99.90;;;;;;5072112;28;20199;-76
2021/07/22 06:26:02;;;;;;;50.85;31.50;;;29.10;99.90;;;;;;5072173;28;20278;-76
2021/07/22 06:28:29;;;;;;;51.47;31.70;;;29.90;99.90;;;;;;5073175;28;20327;-76
2021/07/22 06:30:57;;;;;;;51.28;33.63;;;30.20;99.90;;;;;;5088181;28;20274;-77
2021/07/22 06:33:24;;;;;;;49.05;31.50;;;31.10;99.90;;;;;;5088675;28;20195;-76
2021/07/22 06:35:52;;;;;;;49.90;32.30;;;31.30;99.90;;;;;;5088017;28;20653;-76
2021/07/22 06:38:19;;;;;;;53.85;31.35;;;32.00;99.90;;;;;;5085496;28;20759;-76
2021/07/22 06:40:46;;;;;;;48.35;29.95;;;30.40;99.90;;;;;;5082153;28;20574;-76
2021/07/22 06:43:14;;;;;;;44.55;28.33;;;29.70;99.90;;;;;;5075207;28;20191;-76
2021/07/22 06:45:41;;;;;;;45.25;27.75;;;30.30;99.90;;;;;;5082369;28;20192;-76
2021/07/22 06:48:10;;;;;;;49.63;28.02;;;31.70;99.90;;;;;;5079856;28;20574;-76
2021/07/22 06:50:37;;;;;;;44.15;28.42;;;32.70;99.90;;;;;;5084288;28;20188;-78
2021/07/22 06:53:04;;;;;;;41.40;27.02;;;33.10;99.90;;;;;;5083230;28;20213;-77
2021/07/22 06:55:31;;;;;;;43.00;27.75;;;34.00;99.90;;;;;;5085360;28;20350;-77
2021/07/22 06:58:04;;;;;;;39.53;27.55;;;34.30;99.90;;;;;;5079245;28;20221;-78
2021/07/22 07:00:31;;;;;;;41.30;27.98;;;34.60;99.90;;;;;;5080586;28;20199;-77
2021/07/22 07:02:57;;;;;;;44.53;28.95;;;33.00;99.90;;;;;;5075400;28;20188;-77
2021/07/22 07:05:27;;;;;;;40.65;26.05;;;31.40;99.90;;;;;;5081700;28;20202;-78
2021/07/22 07:07:58;;;;;;;43.47;27.23;;;32.50;99.90;;;;;;5088506;28;20205;-77
2021/07/22 07:10:25;;;;;;;43.50;27.02;;;31.40;99.90;;;;;;5095835;28;20566;-77
2021/07/22 07:12:52;;;;;;;39.20;26.60;;;32.40;99.90;;;;;;5091739;28;20205;-77
2021/07/22 07:15:21;;;;;;;44.90;27.73;;;33.00;99.90;;;;;;5088032;28;20621;-77
2021/07/22 07:17:50;;;;;;;41.63;26.30;;;32.10;99.90;;;;;;5086765;28;20195;-77
2021/07/22 07:20:17;;;;;;;38.03;25.60;;;31.80;99.90;;;;;;5081420;28;20231;-77
2021/07/22 07:22:53;;;;;;;36.88;25.08;;;31.90;99.90;;;;;;5076860;28;20230;-77
2021/07/22 07:25:24;;;;;;;38.25;25.65;;;33.00;99.90;;;;;;5096209;28;20199;-77
2021/07/22 07:27:51;;;;;;;41.33;24.48;;;33.70;99.90;;;;;;5095633;28;20298;-77
2021/07/22 07:30:19;;;;;;;38.83;24.27;;;33.60;99.90;;;;;;5096079;28;20314;-77
2021/07/22 07:32:47;;;;;;;34.35;22.63;;;34.40;99.90;;;;;;5095824;28;20199;-77
2021/07/22 07:35:14;;;;;;;33.90;22.88;;;34.90;99.90;;;;;;5095999;28;20198;-77
2021/07/22 07:37:41;;;;;;;34.47;22.50;;;34.70;99.90;;;;;;5095665;28;20214;-77
2021/07/22 07:40:10;;;;;;;35.67;22.35;;;35.50;99.90;;;;;;5087044;28;20651;-77
2021/07/22 07:42:38;;;;;;;30.92;21.67;;;35.90;99.90;;;;;;5092486;28;20225;-77
2021/07/22 07:45:07;;;;;;;29.38;20.45;;;35.40;99.90;;;;;;5095406;28;20202;-76
2021/07/22 07:47:33;;;;;;;32.03;21.13;;;35.00;99.90;;;;;;5110697;28;20247;-77
2021/07/22 07:50:01;;;;;;;34.00;20.30;;;35.70;99.90;;;;;;5116101;28;20228;-78
2021/07/22 07:52:36;;;;;;;30.60;21.92;;;36.60;99.90;;;;;;5094723;28;20195;-77
2021/07/22 07:55:11;;;;;;;32.33;21.52;;;36.10;99.90;;;;;;5095571;28;20203;-77
2021/07/22 07:57:38;;;;;;;31.75;21.75;;;35.90;99.90;;;;;;5095212;28;20529;-77
2021/07/22 08:00:06;;;;;;;33.55;22.35;;;35.20;99.90;;;;;;5095096;28;20205;-77
2021/07/22 08:02:33;;;;;;;32.03;22.23;;;35.90;99.90;;;;;;5097883;28;20194;-77
2021/07/22 08:05:01;;;;;;;34.15;21.92;;;36.60;99.90;;;;;;5098622;28;20195;-77
2021/07/22 08:07:29;;;;;;;35.58;22.63;;;34.40;99.90;;;;;;5089745;28;20636;-77
2021/07/22 08:09:56;;;;;;;30.35;21.35;;;34.00;99.90;;;;;;5095218;28;20230;-77
2021/07/22 08:12:24;;;;;;;31.92;22.08;;;34.60;99.90;;;;;;5094530;28;20751;-76
2021/07/22 08:14:51;;;;;;;28.38;18.98;;;34.90;99.90;;;;;;5094897;28;20205;-77
2021/07/22 08:17:20;;;;;;;31.00;20.33;;;36.20;99.90;;;;;;5094490;28;20290;-77
2021/07/22 08:19:47;;;;;;;29.10;19.58;;;36.50;99.90;;;;;;5094763;28;20235;-76
2021/07/22 08:22:14;;;;;;;23.60;17.80;;;36.80;99.90;;;;;;5094451;28;20224;-77
2021/07/22 08:24:41;;;;;;;22.90;16.90;;;37.40;99.90;;;;;;5094697;28;20241;-77
2021/07/22 08:27:08;;;;;;;25.13;16.75;;;37.40;99.90;;;;;;5094030;28;20286;-77
2021/07/22 08:29:40;;;;;;;24.02;15.95;;;37.90;99.90;;;;;;5094773;28;20222;-77
2021/07/22 08:32:08;;;;;;;26.63;16.88;;;38.30;99.90;;;;;;5094810;28;20205;-76
2021/07/22 08:34:34;;;;;;;28.08;17.10;;;38.90;99.90;;;;;;5094257;28;20559;-77
2021/07/22 08:37:08;;;;;;;26.20;17.60;;;38.70;99.90;;;;;;5084511;28;20286;-77
2021/07/22 08:39:38;;;;;;;27.42;18.33;;;39.20;99.90;;;;;;5076153;28;20227;-77
2021/07/22 08:42:06;;;;;;;27.38;19.48;;;38.40;99.90;;;;;;5094533;28;20226;-77
2021/07/22 08:44:33;;;;;;;29.38;19.70;;;38.20;99.90;;;;;;5094584;28;20195;-76
2021/07/22 08:47:02;;;;;;;29.55;20.00;;;39.20;99.90;;;;;;5094485;28;20237;-77
2021/07/22 08:49:29;;;;;;;26.58;19.55;;;36.10;99.90;;;;;;5081326;28;20302;-77
2021/07/22 08:51:59;;;;;;;32.15;20.35;;;34.00;99.90;;;;;;5107768;28;20226;-77
2021/07/22 08:54:26;;;;;;;29.85;19.73;;;32.50;99.90;;;;;;5098496;28;20667;-77
2021/07/22 08:56:55;;;;;;;30.92;19.88;;;31.50;99.90;;;;;;5094321;28;20209;-78
2021/07/22 08:59:25;;;;;;;26.27;16.80;;;30.40;99.90;;;;;;5085079;28;20241;-87
2021/07/22 09:01:56;;;;;;;23.98;14.15;;;32.40;99.90;;;;;;5093010;28;20203;-77
2021/07/22 09:04:32;;;;;;;18.17;13.90;;;34.20;99.90;;;;;;5094035;28;20294;-77
2021/07/22 09:07:04;;;;;;;24.17;15.05;;;34.70;99.90;;;;;;5094456;28;20206;-77
2021/07/22 09:09:34;;;;;;;21.23;15.93;;;34.80;99.90;;;;;;5093603;28;20219;-77
2021/07/22 09:12:02;;;;;;;23.02;15.77;;;35.80;99.90;;;;;;5093682;28;20703;-77
2021/07/22 09:14:31;;;;;;;19.45;13.02;;;35.60;99.90;;;;;;5087177;28;20201;-77
2021/07/22 09:16:59;;;;;;;21.88;13.77;;;36.50;99.90;;;;;;5088568;28;20240;-77
2021/07/22 09:19:36;;;;;;;19.75;13.68;;;36.50;99.90;;;;;;5089867;28;20195;-77
2021/07/22 09:22:04;;;;;;;21.58;14.80;;;34.30;99.90;;;;;;5087815;28;20198;-77
2021/07/22 09:24:48;;;;;;;21.10;14.38;;;34.30;99.90;;;;;;5073387;28;20632;-77
2021/07/22 09:27:34;;;;;;;22.25;13.82;;;34.50;99.90;;;;;;5080347;28;20217;-77
2021/07/22 09:30:09;;;;;;;21.17;14.70;;;33.60;99.90;;;;;;5098848;28;20703;-76
2021/07/22 09:32:44;;;;;;;19.38;13.15;;;33.70;99.90;;;;;;5089462;28;20190;-77
2021/07/22 09:35:15;;;;;;;23.33;13.77;;;35.50;99.90;;;;;;5073266;28;20215;-77
2021/07/22 09:37:45;;;;;;;20.55;12.93;;;35.90;99.90;;;;;;5072569;28;20199;-77
2021/07/22 09:40:18;;;;;;;23.70;15.10;;;37.00;99.90;;;;;;5058329;28;20184;-77
2021/07/22 09:42:47;;;;;;;24.98;15.32;;;36.90;99.90;;;;;;5073271;28;20210;-77
2021/07/22 09:45:16;;;;;;;26.33;15.82;;;37.10;99.90;;;;;;5067430;28;20746;-77
2021/07/22 09:47:43;;;;;;;22.80;16.08;;;35.30;99.90;;;;;;5074128;28;20286;-77
2021/07/22 09:50:14;;;;;;;26.20;16.30;;;35.70;99.90;;;;;;5073446;28;20714;-77
2021/07/22 09:52:41;;;;;;;22.48;14.95;;;34.40;99.90;;;;;;5080322;28;20570;-76
2021/07/22 09:55:28;;;;;;;22.45;14.48;;;34.10;99.90;;;;;;5054227;28;20287;-77
2021/07/22 09:57:56;;;;;;;23.27;15.20;;;34.60;99.90;;;;;;5066560;28;20692;-85
2021/07/22 10:00:25;;;;;;;20.25;14.20;;;35.40;99.90;;;;;;5066178;28;20211;-78
2021/07/22 10:02:53;;;;;;;18.65;14.02;;;36.00;99.90;;;;;;5072725;28;20360;-78
2021/07/22 10:05:24;;;;;;;19.33;13.35;;;36.40;99.90;;;;;;5072842;28;20191;-78
2021/07/22 10:07:53;;;;;;;15.77;11.60;;;37.00;99.90;;;;;;5072945;28;20256;-78
2021/07/22 10:10:21;;;;;;;22.77;15.00;;;37.50;99.90;;;;;;5072862;28;20234;-78
2021/07/22 10:12:54;;;;;;;20.25;15.38;;;38.40;99.90;;;;;;5072894;28;20195;-78
2021/07/22 10:15:22;;;;;;;17.88;12.93;;;36.40;99.90;;;;;;5072819;28;20231;-78
2021/07/22 10:17:51;;;;;;;20.52;13.65;;;34.40;99.90;;;;;;5073616;28;20199;-78
2021/07/22 10:20:19;;;;;;;16.67;13.32;;;35.80;99.90;;;;;;5077572;28;20227;-77
2021/07/22 10:22:48;;;;;;;18.27;12.77;;;35.90;99.90;;;;;;5074388;28;20286;-78
2021/07/22 10:25:16;;;;;;;16.90;11.93;;;36.70;99.90;;;;;;5072677;28;20195;-78
2021/07/22 10:27:43;;;;;;;18.38;13.63;;;37.00;99.90;;;;;;5072805;28;20272;-78
2021/07/22 10:30:13;;;;;;;18.65;14.40;;;36.60;99.90;;;;;;5072542;28;20226;-78
2021/07/22 10:32:47;;;;;;;17.33;12.63;;;36.20;99.90;;;;;;5073887;28;20286;-78
2021/07/22 10:35:16;;;;;;;18.50;12.77;;;36.30;99.90;;;;;;5081783;28;20199;-78
2021/07/22 10:38:11;;;;;;;19.45;12.50;;;36.10;99.90;;;;;;5053729;28;20579;-78
2021/07/22 10:40:58;;;;;;;18.95;13.73;;;36.10;99.90;;;;;;5065244;28;20325;-77
2021/07/22 10:43:46;;;;;;;15.45;11.60;;;35.90;99.90;;;;;;5056690;28;20203;-78
2021/07/22 10:46:14;;;;;;;15.73;11.52;;;36.10;99.90;;;;;;5056366;28;20669;-78
2021/07/22 10:48:42;;;;;;;15.32;10.60;;;36.40;99.90;;;;;;5075511;28;20191;-77
2021/07/22 10:51:13;;;;;;;13.02;9.70;;;36.70;99.90;;;;;;5078829;28;20222;-78
2021/07/22 10:53:53;;;;;;;15.55;11.10;;;37.20;99.90;;;;;;5096894;28;20230;-78
2021/07/22 10:56:53;;;;;;;11.68;8.57;;;36.40;99.90;;;;;;5096749;28;20618;-78
2021/07/22 10:59:20;;;;;;;11.23;8.45;;;36.10;99.90;;;;;;5096222;28;20348;-83
2021/07/22 11:01:51;;;;;;;15.05;10.20;;;37.10;99.90;;;;;;5086703;28;20291;-81
2021/07/22 11:04:46;;;;;;;13.57;9.30;;;37.30;99.90;;;;;;5074941;28;20548;-77
2021/07/22 11:07:28;;;;;;;10.93;8.73;;;37.30;99.90;;;;;;5075860;28;20192;-78
2021/07/22 11:09:58;;;;;;;12.18;8.43;;;37.30;99.90;;;;;;5077672;28;20687;-77
2021/07/22 11:12:56;;;;;;;11.07;7.68;;;37.00;99.90;;;;;;5084534;28;20191;-78
2021/07/22 11:15:59;;;;;;;10.77;8.68;;;35.40;99.90;;;;;;5075398;28;20606;-77
2021/07/22 11:18:48;;;;;;;8.98;7.38;;;34.90;99.90;;;;;;5071862;28;20746;-78
2021/07/22 11:21:18;;;;;;;12.45;7.65;;;34.90;99.90;;;;;;5074216;28;20199;-76
2021/07/22 11:23:54;;;;;;;8.75;7.28;;;35.30;99.90;;;;;;5072760;28;20198;-76
2021/07/22 11:26:26;;;;;;;8.40;7.03;;;34.10;99.90;;;;;;5076931;28;20206;-76
2021/07/22 11:28:53;;;;;;;10.95;7.07;;;35.30;99.90;;;;;;5076300;28;20668;-77
2021/07/22 11:31:20;;;;;;;8.68;7.63;;;36.20;99.90;;;;;;5074009;28;20306;-76
2021/07/22 11:33:48;;;;;;;11.27;7.32;;;37.20;99.90;;;;;;5075039;28;20282;-76
2021/07/22 11:36:18;;;;;;;9.18;7.38;;;37.50;99.90;;;;;;5073614;28;20270;-76
2021/07/22 11:38:52;;;;;;;11.73;7.85;;;36.90;99.90;;;;;;5074864;28;20206;-75
2021/07/22 11:41:20;;;;;;;7.65;6.93;;;34.10;99.90;;;;;;5074873;28;20613;-76
2021/07/22 11:43:49;;;;;;;9.90;7.20;;;34.70;99.90;;;;;;5075178;28;20196;-75
2021/07/22 11:46:35;;;;;;;8.90;6.95;;;34.80;99.90;;;;;;5074826;28;20202;-76
2021/07/22 11:49:07;;;;;;;12.40;8.45;;;34.70;99.90;;;;;;5072572;28;20246;-76
2021/07/22 11:51:39;;;;;;;8.93;6.88;;;33.10;99.90;;;;;;5074353;28;20226;-76
2021/07/22 11:54:06;;;;;;;10.63;7.55;;;34.20;99.90;;;;;;5075731;28;20195;-76
2021/07/22 11:56:36;;;;;;;9.20;7.43;;;35.40;99.90;;;;;;5075359;28;20664;-75
2021/07/22 11:59:08;;;;;;;10.07;7.18;;;35.10;99.90;;;;;;5075350;28;20202;-76
2021/07/22 12:01:49;;;;;;;8.32;6.28;;;35.90;99.90;;;;;;5069175;28;20230;-76
2021/07/22 12:04:30;;;;;;;9.27;6.72;;;34.50;99.90;;;;;;5074086;28;20720;-75
2021/07/22 12:07:05;;;;;;;7.07;6.38;;;33.70;99.90;;;;;;5074801;28;20257;-76
2021/07/22 12:09:32;;;;;;;8.98;7.40;;;34.50;99.90;;;;;;5071147;28;20200;-76
2021/07/22 12:12:01;;;;;;;6.97;6.28;;;34.80;99.90;;;;;;5059126;28;20224;-76
2021/07/22 12:14:31;;;;;;;11.50;7.28;;;34.60;99.90;;;;;;5055439;28;20270;-76
2021/07/22 12:17:01;;;;;;;17.95;9.30;;;34.60;99.90;;;;;;5064478;28;20209;-76
2021/07/22 12:19:29;;;;;;;9.23;7.65;;;34.20;99.90;;;;;;5072013;28;20203;-76
2021/07/22 12:22:17;;;;;;;7.97;7.20;;;33.40;99.90;;;;;;5073749;28;20290;-77
2021/07/22 12:24:44;;;;;;;9.18;6.63;;;33.20;99.90;;;;;;5065564;28;20291;-77
2021/07/22 12:27:32;;;;;;;8.50;6.35;;;33.10;99.90;;;;;;5074334;28;20234;-76
2021/07/22 12:30:02;;;;;;;9.43;7.10;;;32.60;99.90;;;;;;5075020;28;20245;-76
2021/07/22 12:32:29;;;;;;;8.68;6.28;;;32.30;99.90;;;;;;5075508;28;20202;-77
